Pagrindinis puslapis
METAR-TAF:

METAR-TAF

Oro uostai :

Rørvik, Norvegija

platuma: 64-50N, ilguma: 011-09E, Aukštis: 4 m

Dabartinis oras

Ataskaita buvo paskelbta 20 minutes, ne 07:50 UTC
Vėjas 8 kt iš Pietvakarių
Temperatūra 11°C
Drėgmė 76%
Slėgis 1016 hPa
Matomumas 10 km arba daugiau
Mažai debesys ne aukštis 2000 ft
Išsisklaidę debesys ne aukštis 4000 ft

METAR: ENRM 200750Z 22008KT 9999 FEW020 SCT040 11/07 Q1016

Laikas: 10:10 (08:10 UTC)

Prognozė

Ataskaita buvo paskelbta 3 valandos ir 10 minutes, ne 05:00 UTC
Prognozė galioja nuo 20 metu 06 UTC su 20 metu 15 UTC
Vėjas 10 kt iš Pietų/Pietvakarių
Matomumas 10 km arba daugiau
Su prošvaistėmis ne aukštis 2000 ft
Tikimybė 30%
nuo 20 metu 06 UTC su 20 metu 09 UTC
Su prošvaistėmis ne aukštis 1200 ft
Tapsmas
nuo 20 metu 12 UTC su 20 metu 15 UTC
Vėjas 7 kt iš Vakarų

TAF: ENRM 200500Z 2006/2015 21010KT 9999 BKN020 PROB30 2006/2009 BKN012 BECMG 2012/2015 27007KT

Orai ataskaitas ir orų prognozės (METAR, TAF).

turimą stotys yra geltonos ir raudonos taškus žemėlapyje.

Perkelti pele per norėdami pamatyti stoties vardą.

Tada spustelėkite, norėdami matyti oro stebėjimo ir prognozės.

Norėdami pakeisti žemėlapį: spustelėkite ant žalios mygtukų su juodo kryžiaus žemyn,; žalią mygtuką su brūkšneliu, jei norite nutolinti; arba žalių rodyklių gretimoms žemėlapius.


METAR-TAF: